sensor_id;sensor_type;location;lat;lon;timestamp;pressure;altitude;pressure_sealevel;temperature;humidity
216;BME280;64590;48.81286795;9.14184224;2023-04-20T00:00:14;98280.06;;;4.12;74.25
216;BME280;64590;48.81286795;9.14184224;2023-04-20T00:02:42;98284.97;;;4.19;75.10
216;BME280;64590;48.81286795;9.14184224;2023-04-20T00:05:10;98274.63;;;4.44;74.28
216;BME280;64590;48.81286795;9.14184224;2023-04-20T00:07:37;98272.38;;;4.34;74.26
216;BME280;64590;48.81286795;9.14184224;2023-04-20T00:10:07;98276.53;;;4.12;75.40
216;BME280;64590;48.81286795;9.14184224;2023-04-20T00:12:34;98271.13;;;4.31;74.64
216;BME280;64590;48.81286795;9.14184224;2023-04-20T00:15:00;98264.50;;;4.32;74.29
216;BME280;64590;48.81286795;9.14184224;2023-04-20T00:17:27;98265.97;;;4.14;74.85
216;BME280;64590;48.81286795;9.14184224;2023-04-20T00:19:54;98268.00;;;4.17;75.03
216;BME280;64590;48.81286795;9.14184224;2023-04-20T00:22:22;98260.31;;;4.22;75.21
216;BME280;64590;48.81286795;9.14184224;2023-04-20T00:24:49;98262.59;;;4.05;75.32
216;BME280;64590;48.81286795;9.14184224;2023-04-20T00:27:16;98255.09;;;3.74;76.77
216;BME280;64590;48.81286795;9.14184224;2023-04-20T00:29:43;98256.03;;;3.65;77.73
216;BME280;64590;48.81286795;9.14184224;2023-04-20T00:32:10;98249.28;;;3.91;77.16
216;BME280;64590;48.81286795;9.14184224;2023-04-20T00:34:39;98253.59;;;3.76;77.33
216;BME280;64590;48.81286795;9.14184224;2023-04-20T00:37:05;98242.50;;;4.01;77.04
216;BME280;64590;48.81286795;9.14184224;2023-04-20T00:39:33;98238.91;;;3.84;76.79
216;BME280;64590;48.81286795;9.14184224;2023-04-20T00:42:05;98223.09;;;4.09;74.94
216;BME280;64590;48.81286795;9.14184224;2023-04-20T00:44:32;98230.81;;;4.19;74.95
216;BME280;64590;48.81286795;9.14184224;2023-04-20T00:46:59;98227.81;;;3.81;76.11
216;BME280;64590;48.81286795;9.14184224;2023-04-20T00:49:28;98212.72;;;3.59;77.95
216;BME280;64590;48.81286795;9.14184224;2023-04-20T00:51:55;98224.53;;;3.75;77.04
216;BME280;64590;48.81286795;9.14184224;2023-04-20T00:54:23;98227.97;;;3.44;77.91
216;BME280;64590;48.81286795;9.14184224;2023-04-20T00:56:51;98225.19;;;3.56;77.35
216;BME280;64590;48.81286795;9.14184224;2023-04-20T00:59:19;98216.78;;;3.93;77.25
216;BME280;64590;48.81286795;9.14184224;2023-04-20T01:01:45;98211.28;;;3.93;76.71
216;BME280;64590;48.81286795;9.14184224;2023-04-20T01:04:13;98210.78;;;4.03;75.72
216;BME280;64590;48.81286795;9.14184224;2023-04-20T01:06:41;98204.09;;;3.88;75.91
216;BME280;64590;48.81286795;9.14184224;2023-04-20T01:09:07;98197.44;;;3.74;76.47
216;BME280;64590;48.81286795;9.14184224;2023-04-20T01:11:35;98196.63;;;3.45;77.73
216;BME280;64590;48.81286795;9.14184224;2023-04-20T01:14:03;98189.63;;;3.60;78.72
216;BME280;64590;48.81286795;9.14184224;2023-04-20T01:16:30;98187.81;;;3.95;76.28
216;BME280;64590;48.81286795;9.14184224;2023-04-20T01:18:59;98178.03;;;3.66;77.05
216;BME280;64590;48.81286795;9.14184224;2023-04-20T01:21:25;98177.31;;;3.69;76.24
216;BME280;64590;48.81286795;9.14184224;2023-04-20T01:23:53;98172.13;;;3.80;76.47
216;BME280;64590;48.81286795;9.14184224;2023-04-20T01:26:22;98165.56;;;3.69;76.54
216;BME280;64590;48.81286795;9.14184224;2023-04-20T01:28:49;98168.16;;;3.50;77.13
216;BME280;64590;48.81286795;9.14184224;2023-04-20T01:31:16;98159.28;;;3.40;78.17
216;BME280;64590;48.81286795;9.14184224;2023-04-20T01:33:43;98156.28;;;3.46;78.02
216;BME280;64590;48.81286795;9.14184224;2023-04-20T01:36:10;98142.34;;;3.66;76.85
216;BME280;64590;48.81286795;9.14184224;2023-04-20T01:38:37;98152.38;;;3.47;77.09
216;BME280;64590;48.81286795;9.14184224;2023-04-20T01:41:06;98150.13;;;3.49;77.00
216;BME280;64590;48.81286795;9.14184224;2023-04-20T01:43:35;98142.72;;;3.65;76.38
216;BME280;64590;48.81286795;9.14184224;2023-04-20T01:46:03;98141.13;;;3.80;75.84
216;BME280;64590;48.81286795;9.14184224;2023-04-20T01:48:30;98139.50;;;3.63;76.20
216;BME280;64590;48.81286795;9.14184224;2023-04-20T01:50:57;98135.47;;;3.45;77.31
216;BME280;64590;48.81286795;9.14184224;2023-04-20T01:53:24;98135.53;;;3.60;77.14
216;BME280;64590;48.81286795;9.14184224;2023-04-20T01:55:51;98126.84;;;3.58;77.33
216;BME280;64590;48.81286795;9.14184224;2023-04-20T01:58:22;98123.31;;;3.30;77.82
216;BME280;64590;48.81286795;9.14184224;2023-04-20T02:00:48;98125.75;;;3.47;77.54
216;BME280;64590;48.81286795;9.14184224;2023-04-20T02:03:15;98117.19;;;3.21;77.42
216;BME280;64590;48.81286795;9.14184224;2023-04-20T02:05:41;98118.97;;;3.13;78.42
216;BME280;64590;48.81286795;9.14184224;2023-04-20T02:08:08;98117.97;;;3.49;77.58
216;BME280;64590;48.81286795;9.14184224;2023-04-20T02:10:38;98117.78;;;3.42;76.67
216;BME280;64590;48.81286795;9.14184224;2023-04-20T02:13:04;98123.31;;;3.30;77.89
216;BME280;64590;48.81286795;9.14184224;2023-04-20T02:15:32;98115.03;;;3.42;77.38
216;BME280;64590;48.81286795;9.14184224;2023-04-20T02:17:59;98120.88;;;3.12;78.25
216;BME280;64590;48.81286795;9.14184224;2023-04-20T02:20:26;98117.41;;;3.00;78.19
216;BME280;64590;48.81286795;9.14184224;2023-04-20T02:22:52;98112.72;;;3.00;78.20
216;BME280;64590;48.81286795;9.14184224;2023-04-20T02:28:07;98101.72;;;2.72;79.57
216;BME280;64590;48.81286795;9.14184224;2023-04-20T02:30:38;98103.97;;;2.82;79.39
216;BME280;64590;48.81286795;9.14184224;2023-04-20T02:33:05;98090.22;;;2.95;78.31
216;BME280;64590;48.81286795;9.14184224;2023-04-20T02:35:31;98104.19;;;2.90;79.34
216;BME280;64590;48.81286795;9.14184224;2023-04-20T02:37:58;98085.13;;;2.81;79.01
216;BME280;64590;48.81286795;9.14184224;2023-04-20T02:40:25;98096.53;;;2.43;81.32
216;BME280;64590;48.81286795;9.14184224;2023-04-20T02:42:51;98093.38;;;2.69;81.34
216;BME280;64590;48.81286795;9.14184224;2023-04-20T02:45:18;98089.00;;;2.52;80.97
216;BME280;64590;48.81286795;9.14184224;2023-04-20T02:47:47;98094.50;;;2.80;79.98
216;BME280;64590;48.81286795;9.14184224;2023-04-20T02:50:14;98089.53;;;2.70;79.34
216;BME280;64590;48.81286795;9.14184224;2023-04-20T02:53:01;98092.13;;;2.78;79.98
216;BME280;64590;48.81286795;9.14184224;2023-04-20T02:55:29;98084.34;;;2.80;80.19
216;BME280;64590;48.81286795;9.14184224;2023-04-20T02:57:59;98077.56;;;2.62;80.00
216;BME280;64590;48.81286795;9.14184224;2023-04-20T03:00:42;98077.56;;;2.62;80.03
216;BME280;64590;48.81286795;9.14184224;2023-04-20T03:03:10;98078.34;;;2.63;80.46
216;BME280;64590;48.81286795;9.14184224;2023-04-20T03:05:37;98076.41;;;2.91;79.62
216;BME280;64590;48.81286795;9.14184224;2023-04-20T03:08:04;98083.22;;;2.69;80.86
216;BME280;64590;48.81286795;9.14184224;2023-04-20T03:10:31;98080.94;;;2.71;79.77
216;BME280;64590;48.81286795;9.14184224;2023-04-20T03:13:08;98083.56;;;2.68;79.57
216;BME280;64590;48.81286795;9.14184224;2023-04-20T03:15:55;98081.53;;;2.65;80.05
216;BME280;64590;48.81286795;9.14184224;2023-04-20T03:18:31;98071.81;;;2.95;78.71
216;BME280;64590;48.81286795;9.14184224;2023-04-20T03:20:58;98070.84;;;3.16;77.70
216;BME280;64590;48.81286795;9.14184224;2023-04-20T03:23:26;98074.59;;;2.55;79.97
216;BME280;64590;48.81286795;9.14184224;2023-04-20T03:25:52;98066.38;;;2.43;79.55
216;BME280;64590;48.81286795;9.14184224;2023-04-20T03:28:31;98064.22;;;2.48;80.44
216;BME280;64590;48.81286795;9.14184224;2023-04-20T03:30:58;98068.31;;;2.54;79.96
216;BME280;64590;48.81286795;9.14184224;2023-04-20T03:33:27;98064.44;;;2.83;79.61
216;BME280;64590;48.81286795;9.14184224;2023-04-20T03:35:55;98068.97;;;2.64;79.73
216;BME280;64590;48.81286795;9.14184224;2023-04-20T03:38:22;98062.13;;;2.70;80.14
216;BME280;64590;48.81286795;9.14184224;2023-04-20T03:40:49;98074.59;;;2.43;81.01
216;BME280;64590;48.81286795;9.14184224;2023-04-20T03:43:15;98062.44;;;2.68;80.37
216;BME280;64590;48.81286795;9.14184224;2023-04-20T03:45:42;98058.22;;;2.71;79.64
216;BME280;64590;48.81286795;9.14184224;2023-04-20T03:48:08;98061.47;;;2.61;79.80
216;BME280;64590;48.81286795;9.14184224;2023-04-20T03:50:35;98053.03;;;2.41;80.08
216;BME280;64590;48.81286795;9.14184224;2023-04-20T03:53:04;98052.13;;;2.49;79.74
216;BME280;64590;48.81286795;9.14184224;2023-04-20T03:55:31;98051.31;;;2.61;80.29
216;BME280;64590;48.81286795;9.14184224;2023-04-20T03:58:03;98054.97;;;2.53;79.89
216;BME280;64590;48.81286795;9.14184224;2023-04-20T04:00:40;98045.44;;;2.35;80.47
216;BME280;64590;48.81286795;9.14184224;2023-04-20T04:03:10;98049.88;;;2.67;79.82
216;BME280;64590;48.81286795;9.14184224;2023-04-20T04:05:37;98045.38;;;2.87;78.91
216;BME280;64590;48.81286795;9.14184224;2023-04-20T04:08:05;98049.50;;;2.53;80.25
216;BME280;64590;48.81286795;9.14184224;2023-04-20T04:10:31;98046.34;;;2.67;79.19
216;BME280;64590;48.81286795;9.14184224;2023-04-20T04:12:58;98047.81;;;2.24;80.65
216;BME280;64590;48.81286795;9.14184224;2023-04-20T04:15:25;98048.66;;;2.65;79.52
216;BME280;64590;48.81286795;9.14184224;2023-04-20T04:17:59;98044.94;;;2.45;80.44
216;BME280;64590;48.81286795;9.14184224;2023-04-20T04:20:28;98048.31;;;2.14;81.22
216;BME280;64590;48.81286795;9.14184224;2023-04-20T04:22:55;98050.69;;;2.15;80.98
216;BME280;64590;48.81286795;9.14184224;2023-04-20T04:25:43;98046.41;;;2.42;80.51
216;BME280;64590;48.81286795;9.14184224;2023-04-20T04:28:11;98050.56;;;2.36;80.69
216;BME280;64590;48.81286795;9.14184224;2023-04-20T04:30:46;98052.91;;;2.62;79.38
216;BME280;64590;48.81286795;9.14184224;2023-04-20T04:33:13;98054.72;;;2.58;79.59
216;BME280;64590;48.81286795;9.14184224;2023-04-20T04:35:44;98051.81;;;2.79;79.60
216;BME280;64590;48.81286795;9.14184224;2023-04-20T04:38:11;98048.56;;;2.61;79.81
216;BME280;64590;48.81286795;9.14184224;2023-04-20T04:40:40;98050.94;;;2.63;79.96
216;BME280;64590;48.81286795;9.14184224;2023-04-20T04:43:11;98044.84;;;2.69;79.93
216;BME280;64590;48.81286795;9.14184224;2023-04-20T04:45:44;98049.72;;;2.48;80.31
216;BME280;64590;48.81286795;9.14184224;2023-04-20T04:48:12;98053.34;;;2.64;79.96
216;BME280;64590;48.81286795;9.14184224;2023-04-20T04:50:38;98047.50;;;2.66;80.53
216;BME280;64590;48.81286795;9.14184224;2023-04-20T04:53:05;98038.09;;;2.79;79.28
216;BME280;64590;48.81286795;9.14184224;2023-04-20T04:55:32;98039.00;;;2.83;80.14
216;BME280;64590;48.81286795;9.14184224;2023-04-20T04:57:58;98046.41;;;3.10;79.36
216;BME280;64590;48.81286795;9.14184224;2023-04-20T05:00:27;98046.13;;;3.00;78.99
216;BME280;64590;48.81286795;9.14184224;2023-04-20T05:02:55;98039.28;;;2.94;79.84
216;BME280;64590;48.81286795;9.14184224;2023-04-20T05:05:22;98046.81;;;2.97;79.94
216;BME280;64590;48.81286795;9.14184224;2023-04-20T05:07:49;98042.19;;;3.13;79.04
216;BME280;64590;48.81286795;9.14184224;2023-04-20T05:10:16;98039.97;;;3.19;78.59
216;BME280;64590;48.81286795;9.14184224;2023-04-20T05:12:43;98060.47;;;2.81;79.66
216;BME280;64590;48.81286795;9.14184224;2023-04-20T05:15:10;98048.53;;;3.17;79.27
216;BME280;64590;48.81286795;9.14184224;2023-04-20T05:17:38;98047.06;;;3.35;78.96
216;BME280;64590;48.81286795;9.14184224;2023-04-20T05:20:05;98050.97;;;3.34;79.86
216;BME280;64590;48.81286795;9.14184224;2023-04-20T05:22:34;98047.00;;;3.63;77.35
216;BME280;64590;48.81286795;9.14184224;2023-04-20T05:25:01;98051.31;;;3.33;79.15
216;BME280;64590;48.81286795;9.14184224;2023-04-20T05:27:27;98055.91;;;3.29;79.35
216;BME280;64590;48.81286795;9.14184224;2023-04-20T05:29:55;98051.59;;;3.44;78.75
216;BME280;64590;48.81286795;9.14184224;2023-04-20T05:32:21;98049.75;;;3.79;78.07
216;BME280;64590;48.81286795;9.14184224;2023-04-20T05:34:49;98052.59;;;3.83;78.40
216;BME280;64590;48.81286795;9.14184224;2023-04-20T05:37:16;98051.88;;;3.86;78.29
216;BME280;64590;48.81286795;9.14184224;2023-04-20T05:39:42;98057.00;;;3.72;78.21
216;BME280;64590;48.81286795;9.14184224;2023-04-20T05:42:09;98052.03;;;3.77;77.54
216;BME280;64590;48.81286795;9.14184224;2023-04-20T05:44:36;98051.25;;;3.77;78.51
216;BME280;64590;48.81286795;9.14184224;2023-04-20T05:47:03;98055.66;;;3.81;78.98
216;BME280;64590;48.81286795;9.14184224;2023-04-20T05:49:33;98050.16;;;4.13;77.78
216;BME280;64590;48.81286795;9.14184224;2023-04-20T05:52:00;98054.22;;;4.19;76.74
216;BME280;64590;48.81286795;9.14184224;2023-04-20T05:54:27;98050.31;;;4.20;76.52
216;BME280;64590;48.81286795;9.14184224;2023-04-20T05:56:54;98042.09;;;4.39;75.91
216;BME280;64590;48.81286795;9.14184224;2023-04-20T05:59:21;98043.06;;;4.47;75.93
216;BME280;64590;48.81286795;9.14184224;2023-04-20T06:01:48;98041.03;;;4.44;76.14
216;BME280;64590;48.81286795;9.14184224;2023-04-20T06:04:14;98049.88;;;4.53;75.90
216;BME280;64590;48.81286795;9.14184224;2023-04-20T06:06:41;98040.63;;;4.80;74.27
216;BME280;64590;48.81286795;9.14184224;2023-04-20T06:09:09;98038.00;;;4.68;74.39
216;BME280;64590;48.81286795;9.14184224;2023-04-20T06:11:36;98029.69;;;4.84;74.12
216;BME280;64590;48.81286795;9.14184224;2023-04-20T06:14:02;98030.72;;;4.95;74.10
216;BME280;64590;48.81286795;9.14184224;2023-04-20T06:16:29;98046.97;;;4.85;74.80
216;BME280;64590;48.81286795;9.14184224;2023-04-20T06:18:56;98041.22;;;4.90;74.28
216;BME280;64590;48.81286795;9.14184224;2023-04-20T06:21:22;98046.28;;;4.88;74.37
216;BME280;64590;48.81286795;9.14184224;2023-04-20T06:23:51;98036.72;;;5.01;74.82
216;BME280;64590;48.81286795;9.14184224;2023-04-20T06:26:19;98044.22;;;5.46;73.03
216;BME280;64590;48.81286795;9.14184224;2023-04-20T06:28:46;98034.38;;;5.22;74.51
216;BME280;64590;48.81286795;9.14184224;2023-04-20T06:31:12;98037.22;;;5.49;72.73
216;BME280;64590;48.81286795;9.14184224;2023-04-20T06:33:39;98030.97;;;5.75;72.04
216;BME280;64590;48.81286795;9.14184224;2023-04-20T06:36:06;98029.13;;;5.82;71.94
216;BME280;64590;48.81286795;9.14184224;2023-04-20T06:38:33;98029.00;;;5.75;71.49
216;BME280;64590;48.81286795;9.14184224;2023-04-20T06:40:59;98036.34;;;5.67;71.04
216;BME280;64590;48.81286795;9.14184224;2023-04-20T06:43:27;98046.19;;;5.68;72.78
216;BME280;64590;48.81286795;9.14184224;2023-04-20T06:45:54;98032.34;;;5.88;72.61
216;BME280;64590;48.81286795;9.14184224;2023-04-20T06:48:21;98026.94;;;5.91;73.44
216;BME280;64590;48.81286795;9.14184224;2023-04-20T06:50:48;98017.56;;;5.96;71.02
216;BME280;64590;48.81286795;9.14184224;2023-04-20T06:53:14;98031.94;;;6.09;70.44
216;BME280;64590;48.81286795;9.14184224;2023-04-20T06:55:41;98027.22;;;5.86;71.49
216;BME280;64590;48.81286795;9.14184224;2023-04-20T06:58:08;98020.72;;;5.98;71.06
216;BME280;64590;48.81286795;9.14184224;2023-04-20T07:00:36;98016.47;;;6.01;70.80
216;BME280;64590;48.81286795;9.14184224;2023-04-20T07:03:03;98014.63;;;6.08;70.64
216;BME280;64590;48.81286795;9.14184224;2023-04-20T07:05:29;98018.72;;;5.95;72.72
216;BME280;64590;48.81286795;9.14184224;2023-04-20T07:07:56;98024.19;;;6.18;71.46
216;BME280;64590;48.81286795;9.14184224;2023-04-20T07:10:22;98016.72;;;6.18;71.42
216;BME280;64590;48.81286795;9.14184224;2023-04-20T07:12:49;98016.47;;;6.27;71.60
216;BME280;64590;48.81286795;9.14184224;2023-04-20T07:15:15;98021.09;;;6.49;69.91
216;BME280;64590;48.81286795;9.14184224;2023-04-20T07:17:43;98013.69;;;6.54;69.98
216;BME280;64590;48.81286795;9.14184224;2023-04-20T07:20:10;98020.00;;;6.58;70.21
216;BME280;64590;48.81286795;9.14184224;2023-04-20T07:22:37;98019.22;;;6.57;70.47
216;BME280;64590;48.81286795;9.14184224;2023-04-20T07:25:05;98014.41;;;6.80;69.32
216;BME280;64590;48.81286795;9.14184224;2023-04-20T07:27:34;98005.94;;;6.96;69.53
216;BME280;64590;48.81286795;9.14184224;2023-04-20T07:30:01;98006.84;;;6.77;68.64
216;BME280;64590;48.81286795;9.14184224;2023-04-20T07:32:27;98009.69;;;6.51;69.76
216;BME280;64590;48.81286795;9.14184224;2023-04-20T07:34:55;98010.56;;;6.59;70.55
216;BME280;64590;48.81286795;9.14184224;2023-04-20T07:37:22;98012.25;;;6.67;70.62
216;BME280;64590;48.81286795;9.14184224;2023-04-20T07:39:50;98008.31;;;6.98;69.66
216;BME280;64590;48.81286795;9.14184224;2023-04-20T07:42:17;98012.84;;;6.83;69.81
216;BME280;64590;48.81286795;9.14184224;2023-04-20T07:44:43;98009.47;;;6.97;69.61
216;BME280;64590;48.81286795;9.14184224;2023-04-20T07:47:10;98000.34;;;6.93;69.75
216;BME280;64590;48.81286795;9.14184224;2023-04-20T07:49:36;98003.50;;;7.28;69.47
216;BME280;64590;48.81286795;9.14184224;2023-04-20T07:52:06;98000.81;;;7.35;68.23
216;BME280;64590;48.81286795;9.14184224;2023-04-20T07:54:33;97999.56;;;7.29;68.08
216;BME280;64590;48.81286795;9.14184224;2023-04-20T07:57:00;98004.16;;;7.15;68.21
216;BME280;64590;48.81286795;9.14184224;2023-04-20T07:59:27;98009.69;;;6.81;69.07
216;BME280;64590;48.81286795;9.14184224;2023-04-20T08:01:57;98011.47;;;7.00;70.39
216;BME280;64590;48.81286795;9.14184224;2023-04-20T08:04:24;98006.03;;;7.07;69.67
216;BME280;64590;48.81286795;9.14184224;2023-04-20T08:06:51;98012.22;;;7.34;69.74
216;BME280;64590;48.81286795;9.14184224;2023-04-20T08:09:19;98004.66;;;7.27;69.93
216;BME280;64590;48.81286795;9.14184224;2023-04-20T08:11:45;98008.34;;;7.39;69.09
216;BME280;64590;48.81286795;9.14184224;2023-04-20T08:14:13;98012.25;;;7.78;67.40
216;BME280;64590;48.81286795;9.14184224;2023-04-20T08:16:39;98006.19;;;8.10;67.67
216;BME280;64590;48.81286795;9.14184224;2023-04-20T08:19:06;98002.03;;;7.82;67.73
216;BME280;64590;48.81286795;9.14184224;2023-04-20T08:21:35;97993.09;;;7.55;67.87
216;BME280;64590;48.81286795;9.14184224;2023-04-20T08:24:02;97981.63;;;7.53;68.62
216;BME280;64590;48.81286795;9.14184224;2023-04-20T08:26:30;97981.84;;;7.78;67.31
216;BME280;64590;48.81286795;9.14184224;2023-04-20T08:28:57;98003.09;;;7.71;67.96
216;BME280;64590;48.81286795;9.14184224;2023-04-20T08:31:24;97992.09;;;7.74;67.81
216;BME280;64590;48.81286795;9.14184224;2023-04-20T08:33:51;97996.16;;;7.43;68.16
216;BME280;64590;48.81286795;9.14184224;2023-04-20T08:36:17;97997.03;;;7.54;67.56
216;BME280;64590;48.81286795;9.14184224;2023-04-20T08:38:44;97996.69;;;7.56;69.55
216;BME280;64590;48.81286795;9.14184224;2023-04-20T08:41:11;97999.78;;;7.54;69.40
216;BME280;64590;48.81286795;9.14184224;2023-04-20T08:43:40;97995.44;;;7.53;70.05
216;BME280;64590;48.81286795;9.14184224;2023-04-20T08:46:07;97999.00;;;7.54;70.18
216;BME280;64590;48.81286795;9.14184224;2023-04-20T08:48:35;97997.72;;;7.44;70.80
216;BME280;64590;48.81286795;9.14184224;2023-04-20T08:51:03;97997.31;;;7.42;70.70
216;BME280;64590;48.81286795;9.14184224;2023-04-20T08:53:30;97998.88;;;7.40;72.82
216;BME280;64590;48.81286795;9.14184224;2023-04-20T08:55:57;98000.31;;;7.26;72.25
216;BME280;64590;48.81286795;9.14184224;2023-04-20T08:58:24;97993.47;;;7.50;71.78
216;BME280;64590;48.81286795;9.14184224;2023-04-20T09:00:52;97991.41;;;7.44;71.35
216;BME280;64590;48.81286795;9.14184224;2023-04-20T09:03:30;97992.25;;;7.48;72.96
216;BME280;64590;48.81286795;9.14184224;2023-04-20T09:05:57;97993.09;;;7.55;73.24
216;BME280;64590;48.81286795;9.14184224;2023-04-20T09:08:33;97992.97;;;7.41;73.46
216;BME280;64590;48.81286795;9.14184224;2023-04-20T09:11:00;98004.13;;;7.52;72.91
216;BME280;64590;48.81286795;9.14184224;2023-04-20T09:13:26;97985.34;;;7.72;71.20
216;BME280;64590;48.81286795;9.14184224;2023-04-20T09:15:54;97992.72;;;7.57;72.33
216;BME280;64590;48.81286795;9.14184224;2023-04-20T09:18:21;97991.16;;;7.59;72.20
216;BME280;64590;48.81286795;9.14184224;2023-04-20T09:20:49;97989.81;;;7.39;73.27
216;BME280;64590;48.81286795;9.14184224;2023-04-20T09:23:17;97989.28;;;7.71;73.03
216;BME280;64590;48.81286795;9.14184224;2023-04-20T09:25:45;97984.84;;;7.59;71.48
216;BME280;64590;48.81286795;9.14184224;2023-04-20T09:28:12;97962.69;;;7.48;73.34
216;BME280;64590;48.81286795;9.14184224;2023-04-20T09:30:41;97979.72;;;7.61;71.16
216;BME280;64590;48.81286795;9.14184224;2023-04-20T09:33:10;97979.91;;;7.34;72.44
216;BME280;64590;48.81286795;9.14184224;2023-04-20T09:35:39;97979.66;;;7.54;71.41
216;BME280;64590;48.81286795;9.14184224;2023-04-20T09:38:06;97982.72;;;7.42;71.89
216;BME280;64590;48.81286795;9.14184224;2023-04-20T09:40:33;97976.84;;;7.47;72.57
216;BME280;64590;48.81286795;9.14184224;2023-04-20T09:43:02;97974.06;;;7.47;71.69
216;BME280;64590;48.81286795;9.14184224;2023-04-20T09:45:31;97978.09;;;7.53;71.40
216;BME280;64590;48.81286795;9.14184224;2023-04-20T09:47:58;97974.84;;;7.44;73.82
216;BME280;64590;48.81286795;9.14184224;2023-04-20T09:50:26;97979.97;;;7.42;72.17
216;BME280;64590;48.81286795;9.14184224;2023-04-20T09:52:53;97966.38;;;7.67;70.59
216;BME280;64590;48.81286795;9.14184224;2023-04-20T09:55:20;97974.34;;;7.75;70.02
216;BME280;64590;48.81286795;9.14184224;2023-04-20T09:57:48;97978.84;;;7.50;71.34
216;BME280;64590;48.81286795;9.14184224;2023-04-20T10:00:15;97972.44;;;7.39;71.58
216;BME280;64590;48.81286795;9.14184224;2023-04-20T10:02:45;97967.59;;;7.73;72.55
216;BME280;64590;48.81286795;9.14184224;2023-04-20T10:05:11;97966.53;;;7.88;70.79
216;BME280;64590;48.81286795;9.14184224;2023-04-20T10:07:39;97971.56;;;7.75;70.55
216;BME280;64590;48.81286795;9.14184224;2023-04-20T10:10:07;97973.97;;;7.80;70.64
216;BME280;64590;48.81286795;9.14184224;2023-04-20T10:12:46;97954.09;;;7.64;71.63
216;BME280;64590;48.81286795;9.14184224;2023-04-20T10:15:13;97964.47;;;7.74;72.29
216;BME280;64590;48.81286795;9.14184224;2023-04-20T10:17:39;97966.00;;;7.68;72.86
216;BME280;64590;48.81286795;9.14184224;2023-04-20T10:20:17;97956.97;;;7.75;69.94
216;BME280;64590;48.81286795;9.14184224;2023-04-20T10:22:45;97954.94;;;7.64;71.21
216;BME280;64590;48.81286795;9.14184224;2023-04-20T10:25:17;97955.09;;;7.89;71.24
216;BME280;64590;48.81286795;9.14184224;2023-04-20T10:27:52;97961.09;;;8.02;69.31
216;BME280;64590;48.81286795;9.14184224;2023-04-20T10:30:19;97957.81;;;7.82;70.98
216;BME280;64590;48.81286795;9.14184224;2023-04-20T10:32:46;97951.50;;;7.85;70.63
216;BME280;64590;48.81286795;9.14184224;2023-04-20T10:35:12;97950.91;;;8.10;69.42
216;BME280;64590;48.81286795;9.14184224;2023-04-20T10:37:47;97945.31;;;8.06;71.82
216;BME280;64590;48.81286795;9.14184224;2023-04-20T10:40:14;97949.31;;;8.09;71.48
216;BME280;64590;48.81286795;9.14184224;2023-04-20T10:42:41;97938.50;;;7.89;72.26
216;BME280;64590;48.81286795;9.14184224;2023-04-20T10:45:09;97939.63;;;7.78;72.82
216;BME280;64590;48.81286795;9.14184224;2023-04-20T10:47:36;97942.16;;;8.08;72.91
216;BME280;64590;48.81286795;9.14184224;2023-04-20T10:50:06;97933.56;;;8.23;72.81
216;BME280;64590;48.81286795;9.14184224;2023-04-20T10:52:33;97903.00;;;7.91;74.04
216;BME280;64590;48.81286795;9.14184224;2023-04-20T10:55:03;97919.59;;;7.99;74.92
216;BME280;64590;48.81286795;9.14184224;2023-04-20T10:57:30;97900.44;;;8.31;75.10
216;BME280;64590;48.81286795;9.14184224;2023-04-20T10:59:56;97903.81;;;7.99;76.47
216;BME280;64590;48.81286795;9.14184224;2023-04-20T11:02:23;97896.44;;;8.17;77.62
216;BME280;64590;48.81286795;9.14184224;2023-04-20T11:04:50;97908.28;;;8.18;78.00
216;BME280;64590;48.81286795;9.14184224;2023-04-20T11:07:18;97902.22;;;7.91;77.69
216;BME280;64590;48.81286795;9.14184224;2023-04-20T11:09:52;97905.00;;;7.98;76.10
216;BME280;64590;48.81286795;9.14184224;2023-04-20T11:12:20;97905.31;;;7.82;79.65
216;BME280;64590;48.81286795;9.14184224;2023-04-20T11:14:51;97904.91;;;7.80;78.96
216;BME280;64590;48.81286795;9.14184224;2023-04-20T11:17:17;97901.38;;;7.83;77.30
216;BME280;64590;48.81286795;9.14184224;2023-04-20T11:19:44;97895.75;;;7.69;79.42
216;BME280;64590;48.81286795;9.14184224;2023-04-20T11:22:20;97890.44;;;7.46;79.85
216;BME280;64590;48.81286795;9.14184224;2023-04-20T11:24:46;97885.53;;;7.77;79.47
216;BME280;64590;48.81286795;9.14184224;2023-04-20T11:27:19;97888.66;;;7.72;81.95
216;BME280;64590;48.81286795;9.14184224;2023-04-20T11:29:55;97882.78;;;7.73;79.69
216;BME280;64590;48.81286795;9.14184224;2023-04-20T11:32:22;97885.03;;;7.60;79.39
216;BME280;64590;48.81286795;9.14184224;2023-04-20T11:34:57;97888.19;;;7.59;81.21
216;BME280;64590;48.81286795;9.14184224;2023-04-20T11:37:24;97887.06;;;7.67;80.21
216;BME280;64590;48.81286795;9.14184224;2023-04-20T11:39:58;97897.66;;;7.58;77.77
216;BME280;64590;48.81286795;9.14184224;2023-04-20T11:42:26;97895.28;;;7.60;80.04
216;BME280;64590;48.81286795;9.14184224;2023-04-20T11:44:53;97905.91;;;7.54;79.35
216;BME280;64590;48.81286795;9.14184224;2023-04-20T11:47:19;97894.44;;;7.52;78.27
216;BME280;64590;48.81286795;9.14184224;2023-04-20T11:49:46;97892.91;;;7.58;79.30
216;BME280;64590;48.81286795;9.14184224;2023-04-20T11:52:12;97893.31;;;7.60;80.24
216;BME280;64590;48.81286795;9.14184224;2023-04-20T11:54:39;97892.53;;;7.60;78.53
216;BME280;64590;48.81286795;9.14184224;2023-04-20T11:57:06;97904.53;;;7.85;79.00
216;BME280;64590;48.81286795;9.14184224;2023-04-20T11:59:34;97905.19;;;7.64;79.59